Time;durP1;ratioP1;P1;durP2;ratioP2;P2;SDS_P1;SDS_P2;PMS_P1;PMS_P2;Temp;Humidity;BMP_temperature;BMP_pressure;BME280_temperature;BME280_humidity;BME280_pressure;Samples;Min_cycle;Max_cycle;Signal;HPM_P1;HPM_P2
2021/09/14 00:00:43;;;;;;;1.63;1.53;;;23.60;56.90;;;;;;5087319;28;20201;-63
2021/09/14 00:03:15;;;;;;;2.60;1.40;;;23.60;56.90;;;;;;5100742;27;20216;-64
2021/09/14 00:05:44;;;;;;;2.03;1.60;;;23.60;56.90;;;;;;5109036;28;20269;-64
2021/09/14 00:08:13;;;;;;;2.17;1.70;;;23.60;56.90;;;;;;5105854;28;20271;-64
2021/09/14 00:10:42;;;;;;;2.10;1.90;;;23.70;57.00;;;;;;5110685;28;20678;-64
2021/09/14 00:13:27;;;;;;;3.07;1.60;;;23.60;56.80;;;;;;5110451;27;20188;-64
2021/09/14 00:15:59;;;;;;;2.27;1.77;;;23.60;56.90;;;;;;5114008;27;20248;-64
2021/09/14 00:18:29;;;;;;;1.80;1.57;;;23.60;56.90;;;;;;5116056;27;20185;-64
2021/09/14 00:20:59;;;;;;;3.90;1.80;;;23.60;56.90;;;;;;5112787;28;20203;-64
2021/09/14 00:23:31;;;;;;;1.97;1.60;;;23.60;56.80;;;;;;5122340;28;20215;-64
2021/09/14 00:26:05;;;;;;;1.77;1.67;;;23.60;56.90;;;;;;5123781;27;20228;-64
2021/09/14 00:28:34;;;;;;;2.37;1.80;;;23.60;56.90;;;;;;5116575;28;20268;-64
2021/09/14 00:31:04;;;;;;;2.83;1.70;;;23.60;56.90;;;;;;5096193;27;20284;-64
2021/09/14 00:33:36;;;;;;;2.00;1.73;;;23.60;57.50;;;;;;5090257;28;20205;-64
2021/09/14 00:36:08;;;;;;;1.90;1.80;;;23.60;56.80;;;;;;5091831;28;20223;-64
2021/09/14 00:38:39;;;;;;;2.80;1.90;;;23.60;56.80;;;;;;5103670;28;20513;-64
2021/09/14 00:41:12;;;;;;;2.60;1.83;;;23.60;56.90;;;;;;5106683;28;20284;-64
2021/09/14 00:43:41;;;;;;;2.13;1.77;;;23.60;56.90;;;;;;5106775;28;20203;-64
2021/09/14 00:46:12;;;;;;;2.30;1.63;;;23.60;56.80;;;;;;5108754;27;20310;-64
2021/09/14 00:48:44;;;;;;;2.10;1.80;;;23.60;56.90;;;;;;5106718;28;20200;-63
2021/09/14 00:51:14;;;;;;;1.73;1.63;;;23.60;56.90;;;;;;5107719;27;20294;-64
2021/09/14 00:53:47;;;;;;;2.40;2.10;;;23.50;56.80;;;;;;5092207;28;20303;-63
2021/09/14 00:56:21;;;;;;;2.50;2.17;;;23.60;56.80;;;;;;5089364;28;20275;-64
2021/09/14 00:58:54;;;;;;;2.10;1.80;;;23.50;56.80;;;;;;5106191;27;20253;-64
2021/09/14 01:01:22;;;;;;;2.90;2.03;;;23.50;56.80;;;;;;5086686;28;20199;-64
2021/09/14 01:03:55;;;;;;;3.37;2.07;;;23.50;56.80;;;;;;5085845;28;20208;-63
2021/09/14 01:06:24;;;;;;;2.90;2.17;;;23.50;56.70;;;;;;5106650;28;20221;-63
2021/09/14 01:08:53;;;;;;;2.90;1.70;;;23.50;56.70;;;;;;5107900;27;20208;-64
2021/09/14 01:11:25;;;;;;;3.50;2.10;;;23.50;56.70;;;;;;5086017;28;20636;-64
2021/09/14 01:14:04;;;;;;;2.87;2.30;;;23.50;56.60;;;;;;5108218;27;20232;-63
2021/09/14 01:16:41;;;;;;;2.90;2.17;;;23.50;56.60;;;;;;5065427;28;20617;-64
2021/09/14 01:19:13;;;;;;;2.90;1.80;;;23.50;56.60;;;;;;5110393;28;20200;-64
2021/09/14 01:21:44;;;;;;;3.00;2.63;;;23.50;56.60;;;;;;5092777;28;20216;-63
2021/09/14 01:24:14;;;;;;;2.20;2.03;;;23.50;56.60;;;;;;5089912;28;20196;-63
2021/09/14 01:26:45;;;;;;;5.93;2.37;;;23.50;56.60;;;;;;5108137;28;20700;-64
2021/09/14 01:32:07;;;;;;;2.30;2.10;;;23.40;56.50;;;;;;5107289;27;20222;-63
2021/09/14 01:34:38;;;;;;;2.53;2.00;;;23.50;56.60;;;;;;5103729;28;20184;-63
2021/09/14 01:37:07;;;;;;;2.53;2.30;;;23.50;56.50;;;;;;5103442;28;20278;-63
2021/09/14 01:39:39;;;;;;;3.07;2.50;;;23.50;56.50;;;;;;5106780;28;20721;-64
2021/09/14 01:42:07;;;;;;;3.13;2.23;;;23.50;56.50;;;;;;5107017;27;20246;-64
2021/09/14 01:44:39;;;;;;;2.80;2.50;;;23.40;56.40;;;;;;5106312;28;20200;-64
2021/09/14 01:47:07;;;;;;;3.47;2.13;;;23.40;56.40;;;;;;5108628;28;20188;-63
2021/09/14 01:49:38;;;;;;;2.07;1.90;;;23.40;56.50;;;;;;5103962;28;20670;-63
2021/09/14 01:52:08;;;;;;;2.30;1.93;;;23.40;56.50;;;;;;5107414;28;20200;-64
2021/09/14 01:54:41;;;;;;;3.60;2.40;;;23.40;56.50;;;;;;5109050;28;20257;-64
2021/09/14 01:57:12;;;;;;;4.10;2.37;;;23.40;56.50;;;;;;5106090;28;20188;-64
2021/09/14 01:59:42;;;;;;;4.27;2.80;;;23.40;56.50;;;;;;5106928;28;20200;-64
2021/09/14 02:02:49;;;;;;;2.87;2.50;;;23.40;56.40;;;;;;5088443;28;20203;-63
2021/09/14 02:05:19;;;;;;;2.37;2.17;;;23.40;56.40;;;;;;5104042;28;20216;-63
2021/09/14 02:33:56;;;;;;;2.77;2.10;;;23.30;56.40;;;;;;5098506;28;20212;-64
2021/09/14 02:56:24;;;;;;;3.30;2.60;;;23.30;56.30;;;;;;5108239;28;20669;-63
2021/09/14 02:58:54;;;;;;;3.20;2.40;;;23.30;56.30;;;;;;5105263;28;20188;-64
2021/09/14 03:01:26;;;;;;;4.97;2.53;;;23.30;56.30;;;;;;5108127;28;20212;-64
2021/09/14 03:04:00;;;;;;;2.50;2.30;;;23.30;56.20;;;;;;5110049;27;20224;-63
2021/09/14 03:06:32;;;;;;;3.07;2.77;;;23.20;56.20;;;;;;5107526;28;20240;-64
2021/09/14 03:09:02;;;;;;;4.43;2.83;;;23.20;56.10;;;;;;5111798;28;20199;-63
2021/09/14 03:11:34;;;;;;;2.90;2.57;;;23.20;56.10;;;;;;5109996;28;20278;-63
2021/09/14 03:14:05;;;;;;;4.10;2.87;;;23.20;56.20;;;;;;5111037;28;20206;-64
2021/09/14 03:16:39;;;;;;;3.03;2.70;;;23.20;56.10;;;;;;5109329;28;20218;-64
2021/09/14 03:19:10;;;;;;;3.40;2.50;;;23.20;56.10;;;;;;5112900;28;20191;-63
2021/09/14 03:21:44;;;;;;;4.47;3.30;;;23.20;56.10;;;;;;5105423;28;20230;-64
2021/09/14 03:24:14;;;;;;;3.63;2.87;;;23.20;56.10;;;;;;5108511;28;20207;-64
2021/09/14 03:26:43;;;;;;;2.83;2.53;;;23.20;56.10;;;;;;5108587;28;20218;-63
2021/09/14 03:29:13;;;;;;;3.13;2.73;;;23.20;56.10;;;;;;5108374;28;20272;-63
2021/09/14 03:31:45;;;;;;;4.60;3.10;;;23.20;56.10;;;;;;5103403;28;20188;-63
2021/09/14 03:34:13;;;;;;;4.57;3.03;;;23.20;56.10;;;;;;5109960;28;20192;-64
2021/09/14 03:36:43;;;;;;;3.67;2.70;;;23.20;56.10;;;;;;5101356;28;20189;-64
2021/09/14 03:39:15;;;;;;;3.43;2.33;;;23.20;56.30;;;;;;5083795;28;20200;-64
2021/09/14 03:41:48;;;;;;;4.67;3.10;;;23.20;56.30;;;;;;5093541;28;20203;-63
2021/09/14 03:44:18;;;;;;;2.80;2.60;;;23.20;56.30;;;;;;5107380;28;20214;-63
2021/09/14 03:46:48;;;;;;;4.83;2.93;;;23.20;56.30;;;;;;5109434;28;20235;-63
2021/09/14 03:49:20;;;;;;;4.33;2.60;;;23.20;56.30;;;;;;5091519;28;20212;-63
2021/09/14 03:51:50;;;;;;;3.47;3.10;;;23.20;56.30;;;;;;5093334;28;20192;-64
2021/09/14 03:54:19;;;;;;;3.37;2.80;;;23.20;56.30;;;;;;5108092;28;20230;-64
2021/09/14 03:56:51;;;;;;;4.00;3.10;;;23.20;56.20;;;;;;5110385;28;20205;-63
2021/09/14 03:59:21;;;;;;;3.60;3.30;;;23.20;56.20;;;;;;5107239;28;20235;-64
2021/09/14 04:01:56;;;;;;;5.50;3.00;;;23.10;56.20;;;;;;5110040;28;20664;-64
2021/09/14 04:07:11;;;;;;;3.07;2.80;;;23.10;56.10;;;;;;5107814;28;20221;-64
2021/09/14 04:09:44;;;;;;;3.43;2.73;;;23.10;56.10;;;;;;5104402;28;20193;-64
2021/09/14 04:12:14;;;;;;;3.93;3.00;;;23.10;56.10;;;;;;5106256;28;20205;-63
2021/09/14 04:14:50;;;;;;;4.17;3.30;;;23.10;56.10;;;;;;5104059;28;20198;-63
2021/09/14 04:17:20;;;;;;;3.50;3.07;;;23.10;56.00;;;;;;5106122;28;20192;-63
2021/09/14 04:19:50;;;;;;;4.33;3.30;;;23.10;56.00;;;;;;5109322;28;20192;-63
2021/09/14 04:22:18;;;;;;;3.63;2.87;;;23.10;55.80;;;;;;5109140;28;20210;-63
2021/09/14 04:24:48;;;;;;;4.77;3.50;;;23.10;55.80;;;;;;5108397;28;20200;-63
2021/09/14 04:27:16;;;;;;;6.20;3.80;;;23.10;55.70;;;;;;5104999;28;20220;-63
2021/09/14 04:29:44;;;;;;;4.43;3.70;;;23.10;55.70;;;;;;5102907;28;20211;-63
2021/09/14 04:32:15;;;;;;;4.23;3.83;;;23.10;55.60;;;;;;5107794;28;20211;-63
2021/09/14 04:34:45;;;;;;;3.97;3.50;;;23.10;55.50;;;;;;5108635;28;20193;-63
2021/09/14 04:37:15;;;;;;;4.77;3.80;;;23.10;55.50;;;;;;5105333;28;20200;-64
2021/09/14 04:39:47;;;;;;;5.63;4.37;;;23.10;55.40;;;;;;5106489;28;20614;-64
2021/09/14 04:42:16;;;;;;;4.23;3.93;;;23.10;55.40;;;;;;5107125;28;20196;-63
2021/09/14 04:44:48;;;;;;;4.80;3.90;;;23.10;55.30;;;;;;5090070;28;20212;-63
2021/09/14 04:47:17;;;;;;;6.30;4.33;;;23.00;55.20;;;;;;5106741;28;20232;-63
2021/09/14 04:49:47;;;;;;;6.70;4.20;;;23.10;55.20;;;;;;5106774;28;20184;-63
2021/09/14 04:52:18;;;;;;;5.20;4.60;;;23.10;55.20;;;;;;5106388;28;20224;-63
2021/09/14 04:54:49;;;;;;;6.13;4.17;;;23.10;55.10;;;;;;5107588;28;20686;-63
2021/09/14 04:57:18;;;;;;;5.73;4.20;;;23.10;55.10;;;;;;5108461;28;20192;-63
2021/09/14 04:59:52;;;;;;;5.37;3.90;;;23.00;55.00;;;;;;5102327;28;20594;-63
2021/09/14 05:02:35;;;;;;;5.10;4.60;;;23.10;55.00;;;;;;5105529;28;20690;-64
2021/09/14 05:05:28;;;;;;;4.73;4.33;;;23.00;55.00;;;;;;5104916;28;20674;-64
2021/09/14 05:07:58;;;;;;;6.63;4.43;;;23.00;55.00;;;;;;5101738;28;20193;-63
2021/09/14 05:10:29;;;;;;;5.83;3.90;;;23.00;55.00;;;;;;5074251;28;20204;-63
2021/09/14 05:13:07;;;;;;;5.17;4.37;;;23.00;55.00;;;;;;5087479;28;20201;-63
2021/09/14 05:15:35;;;;;;;5.10;4.57;;;23.00;55.00;;;;;;5110160;28;20202;-63
2021/09/14 05:18:10;;;;;;;5.17;4.50;;;23.00;55.00;;;;;;5085493;28;20755;-63
2021/09/14 05:20:42;;;;;;;8.50;4.70;;;23.00;55.10;;;;;;5106504;28;20278;-63
2021/09/14 05:23:32;;;;;;;5.97;4.87;;;23.00;55.20;;;;;;5102206;28;20208;-64
2021/09/14 05:26:13;;;;;;;7.30;5.70;;;23.00;54.90;;;;;;5105824;28;20208;-63
2021/09/14 05:28:45;;;;;;;6.70;5.43;;;23.00;54.80;;;;;;5107882;28;20258;-63
2021/09/14 05:31:14;;;;;;;7.00;5.30;;;22.90;54.70;;;;;;5109560;28;20192;-63
2021/09/14 05:33:46;;;;;;;7.93;5.37;;;22.90;54.60;;;;;;5101676;28;20185;-63
2021/09/14 05:36:16;;;;;;;7.40;5.80;;;22.90;54.50;;;;;;5106479;28;20580;-62
2021/09/14 05:38:44;;;;;;;5.80;5.23;;;22.90;54.40;;;;;;5106295;28;20188;-62
2021/09/14 05:41:13;;;;;;;8.50;5.83;;;22.90;54.40;;;;;;5106192;28;20204;-64
2021/09/14 05:43:44;;;;;;;7.70;5.67;;;22.90;54.40;;;;;;5104300;28;20201;-66
2021/09/14 05:46:15;;;;;;;6.33;5.73;;;22.90;54.60;;;;;;5104672;28;20220;-63
2021/09/14 05:48:48;;;;;;;6.50;5.60;;;22.90;54.70;;;;;;5104952;27;20710;-62
2021/09/14 05:51:19;;;;;;;5.70;5.20;;;22.90;54.60;;;;;;5104801;27;20199;-64
2021/09/14 05:53:48;;;;;;;11.10;5.60;;;22.90;55.10;;;;;;5085628;28;20236;-64
2021/09/14 05:56:23;;;;;;;6.80;5.77;;;22.90;54.90;;;;;;5083756;28;20211;-64
2021/09/14 05:58:50;;;;;;;7.30;6.37;;;22.80;55.30;;;;;;5103912;28;20192;-63
2021/09/14 06:01:21;;;;;;;6.60;6.00;;;22.80;54.50;;;;;;5099877;28;20760;-62
2021/09/14 06:03:51;;;;;;;7.93;6.47;;;22.80;54.50;;;;;;5077001;28;20297;-62
2021/09/14 06:06:22;;;;;;;7.77;6.70;;;22.80;54.50;;;;;;5099288;28;20221;-64
2021/09/14 06:08:53;;;;;;;7.33;6.60;;;22.80;54.40;;;;;;5080598;28;20213;-64
2021/09/14 06:11:25;;;;;;;9.23;6.80;;;22.80;54.50;;;;;;5103199;28;20207;-64
2021/09/14 06:13:55;;;;;;;7.20;6.50;;;22.80;54.50;;;;;;5100125;28;20196;-64
2021/09/14 06:16:24;;;;;;;10.90;6.67;;;22.80;54.80;;;;;;5101059;28;20205;-64
2021/09/14 06:18:55;;;;;;;7.40;6.70;;;22.80;54.80;;;;;;5100699;28;20200;-65
2021/09/14 06:21:25;;;;;;;8.00;7.10;;;22.80;54.80;;;;;;5101343;28;20203;-65
2021/09/14 06:23:57;;;;;;;9.07;6.10;;;22.70;54.70;;;;;;5099769;28;20284;-64
2021/09/14 06:26:27;;;;;;;8.50;6.93;;;22.70;54.80;;;;;;5105422;28;20220;-64
2021/09/14 06:28:58;;;;;;;9.13;6.87;;;22.70;54.90;;;;;;5085623;28;20200;-63
2021/09/14 06:31:28;;;;;;;9.47;6.97;;;22.70;54.80;;;;;;5101858;28;20185;-63
2021/09/14 06:33:58;;;;;;;8.80;7.07;;;22.70;54.70;;;;;;5083111;28;20197;-63
2021/09/14 06:36:28;;;;;;;9.47;6.80;;;22.70;54.70;;;;;;5099819;28;20193;-65
2021/09/14 06:39:00;;;;;;;8.50;6.80;;;22.70;54.80;;;;;;5106471;28;20201;-64
2021/09/14 06:41:32;;;;;;;10.17;7.57;;;22.70;56.20;;;;;;5096112;28;20227;-63
2021/09/14 06:44:04;;;;;;;10.40;7.73;;;22.70;56.00;;;;;;5086572;28;20197;-63
2021/09/14 06:46:36;;;;;;;7.63;6.80;;;22.70;55.60;;;;;;5103543;28;20242;-64
2021/09/14 06:49:05;;;;;;;10.47;7.67;;;22.70;56.00;;;;;;5091609;28;20241;-64
2021/09/14 06:51:48;;;;;;;8.27;6.97;;;22.70;55.30;;;;;;5086602;28;20283;-64
2021/09/14 06:54:17;;;;;;;9.13;6.67;;;22.70;55.50;;;;;;5062583;28;20467;-65
2021/09/14 06:56:44;;;;;;;12.77;5.67;;;22.80;57.30;;;;;;5068148;28;20198;-66
2021/09/14 06:59:13;;;;;;;7.67;6.10;;;22.80;57.30;;;;;;5077844;28;20200;-65
2021/09/14 07:01:42;;;;;;;7.10;5.40;;;22.90;57.50;;;;;;5084028;28;20234;-65
2021/09/14 07:04:24;;;;;;;6.93;5.33;;;22.90;57.40;;;;;;5089486;28;20595;-64
2021/09/14 07:06:54;;;;;;;6.57;4.77;;;22.90;57.40;;;;;;5087562;28;20221;-65
2021/09/14 07:09:25;;;;;;;5.07;4.67;;;23.00;57.20;;;;;;5085358;28;20670;-65
2021/09/14 07:11:57;;;;;;;9.83;5.23;;;23.00;57.20;;;;;;5085529;28;20626;-65
2021/09/14 07:14:25;;;;;;;6.33;4.47;;;23.10;57.10;;;;;;5093915;28;20627;-65
2021/09/14 07:16:56;;;;;;;6.50;4.93;;;23.10;56.90;;;;;;5094573;28;20297;-67
2021/09/14 07:19:25;;;;;;;6.33;4.70;;;23.10;56.70;;;;;;5086841;28;20224;-66
2021/09/14 07:21:55;;;;;;;7.37;5.00;;;23.10;56.60;;;;;;5090476;28;20211;-66
2021/09/14 07:24:25;;;;;;;5.20;4.67;;;23.20;56.50;;;;;;5073201;28;20194;-66
2021/09/14 07:27:00;;;;;;;6.37;4.73;;;23.20;56.40;;;;;;5086917;28;20208;-65
2021/09/14 07:29:33;;;;;;;6.13;5.43;;;23.30;56.40;;;;;;5091849;28;20206;-66
2021/09/14 07:32:10;;;;;;;8.83;5.43;;;23.30;56.40;;;;;;5084585;28;20575;-66
2021/09/14 07:34:41;;;;;;;5.90;5.30;;;23.30;56.20;;;;;;5094117;28;20368;-66
2021/09/14 07:37:12;;;;;;;6.63;5.00;;;23.40;56.10;;;;;;5089497;28;20210;-66
2021/09/14 07:39:43;;;;;;;5.17;4.67;;;23.40;56.00;;;;;;5085954;28;20708;-66
2021/09/14 07:42:15;;;;;;;5.67;4.97;;;23.40;56.00;;;;;;5069192;28;20213;-65
2021/09/14 07:44:44;;;;;;;16.07;5.10;;;23.40;55.80;;;;;;5090136;28;20202;-65
2021/09/14 07:47:14;;;;;;;6.87;6.00;;;23.40;55.70;;;;;;5071164;28;20217;-70
2021/09/14 07:49:45;;;;;;;5.93;5.33;;;23.50;55.80;;;;;;5088991;28;20202;-67
2021/09/14 07:52:15;;;;;;;5.87;5.27;;;23.50;55.70;;;;;;5084238;28;20224;-68
2021/09/14 07:54:59;;;;;;;6.67;5.27;;;23.60;55.80;;;;;;5102209;28;20637;-66
2021/09/14 07:57:39;;;;;;;5.60;5.10;;;23.60;55.70;;;;;;5079841;28;20279;-65
2021/09/14 08:00:08;;;;;;;6.93;5.07;;;23.60;55.60;;;;;;5089579;28;20211;-65
2021/09/14 08:02:52;;;;;;;7.17;5.40;;;23.60;55.50;;;;;;5081968;28;20197;-65
2021/09/14 08:05:20;;;;;;;6.03;5.17;;;23.70;55.40;;;;;;5103846;27;20196;-66
2021/09/14 08:07:53;;;;;;;6.43;5.80;;;23.70;55.40;;;;;;5084954;28;20684;-66
2021/09/14 08:10:25;;;;;;;5.87;5.37;;;23.70;55.30;;;;;;5107017;27;20192;-68
2021/09/14 08:13:03;;;;;;;9.40;5.57;;;23.80;55.40;;;;;;5088508;28;20272;-69
2021/09/14 08:15:38;;;;;;;9.10;5.80;;;23.80;55.30;;;;;;5084250;28;20232;-67
2021/09/14 08:18:08;;;;;;;6.63;5.60;;;23.80;55.20;;;;;;5096579;28;20193;-67
2021/09/14 08:20:36;;;;;;;8.67;6.70;;;23.80;55.20;;;;;;5106694;27;20200;-66
2021/09/14 08:23:07;;;;;;;10.53;6.27;;;23.90;55.40;;;;;;5106883;27;20291;-67
2021/09/14 08:25:35;;;;;;;10.93;7.30;;;23.90;55.30;;;;;;5102982;27;20242;-66
2021/09/14 08:28:04;;;;;;;9.40;6.67;;;23.90;55.20;;;;;;5101928;27;20735;-66
2021/09/14 08:30:34;;;;;;;8.60;6.50;;;23.90;55.40;;;;;;5104491;27;20633;-67
2021/09/14 08:33:06;;;;;;;7.80;7.00;;;23.90;55.30;;;;;;5095719;28;20193;-65
2021/09/14 08:35:33;;;;;;;11.93;6.30;;;23.90;55.30;;;;;;5105042;28;20204;-67
2021/09/14 08:38:04;;;;;;;8.00;7.20;;;23.90;55.00;;;;;;5089077;28;20200;-65
2021/09/14 08:40:33;;;;;;;8.10;7.27;;;24.00;55.60;;;;;;5070417;27;20215;-66
2021/09/14 08:43:09;;;;;;;9.43;7.67;;;24.00;55.30;;;;;;5077015;28;20200;-66
2021/09/14 08:45:42;;;;;;;8.03;7.27;;;23.90;55.20;;;;;;5090239;27;20206;-66
2021/09/14 08:48:26;;;;;;;8.10;7.00;;;23.90;55.30;;;;;;5098770;27;20794;-65
2021/09/14 08:50:58;;;;;;;10.00;7.20;;;23.90;55.50;;;;;;5088112;28;20193;-64
2021/09/14 08:53:36;;;;;;;7.73;7.03;;;24.00;55.40;;;;;;5091482;27;20220;-65
2021/09/14 08:56:11;;;;;;;7.87;7.17;;;24.00;55.50;;;;;;5109442;27;20203;-65
2021/09/14 08:58:41;;;;;;;7.73;6.93;;;24.00;55.50;;;;;;5089494;28;20255;-66
2021/09/14 09:01:14;;;;;;;8.83;7.93;;;24.00;55.50;;;;;;5107106;27;20200;-65
2021/09/14 09:03:44;;;;;;;9.73;7.33;;;24.00;55.60;;;;;;5084050;28;20262;-66
2021/09/14 09:06:15;;;;;;;8.67;7.77;;;24.00;55.50;;;;;;5107948;27;20196;-65
2021/09/14 09:08:51;;;;;;;8.63;7.73;;;24.00;55.50;;;;;;5105262;27;20231;-65
2021/09/14 09:11:19;;;;;;;10.07;7.97;;;24.00;56.30;;;;;;5116557;27;20204;-65
2021/09/14 09:13:50;;;;;;;8.10;7.30;;;24.10;55.70;;;;;;5106251;28;20209;-66
2021/09/14 09:16:28;;;;;;;8.43;7.53;;;24.10;55.50;;;;;;5121979;27;20199;-65
2021/09/14 09:18:58;;;;;;;11.80;7.73;;;24.10;55.50;;;;;;5105718;27;20285;-66
2021/09/14 09:21:33;;;;;;;9.57;7.23;;;24.10;55.50;;;;;;5103177;27;20197;-64
2021/09/14 09:24:14;;;;;;;10.77;7.33;;;24.10;55.50;;;;;;5090132;28;20304;-65
2021/09/14 09:26:43;;;;;;;8.63;7.43;;;24.10;55.60;;;;;;5086459;28;20205;-67
2021/09/14 09:29:23;;;;;;;10.50;7.20;;;24.10;55.60;;;;;;5080439;28;20664;-67
2021/09/14 09:31:52;;;;;;;10.93;7.50;;;24.10;55.80;;;;;;5082751;28;20274;-66
2021/09/14 09:34:28;;;;;;;9.23;7.67;;;24.10;55.60;;;;;;5085569;28;20285;-65
2021/09/14 09:37:05;;;;;;;8.93;7.30;;;24.20;55.80;;;;;;5091682;28;20291;-65
2021/09/14 09:39:47;;;;;;;9.40;6.93;;;24.20;55.60;;;;;;5098681;27;20200;-67
2021/09/14 09:42:17;;;;;;;7.30;6.60;;;24.20;56.40;;;;;;5107493;28;20192;-66
2021/09/14 09:44:58;;;;;;;7.53;6.80;;;24.30;55.70;;;;;;5106444;28;20540;-66
2021/09/14 09:47:28;;;;;;;7.77;6.67;;;24.30;55.70;;;;;;5091906;28;20304;-66
2021/09/14 09:50:04;;;;;;;7.50;6.50;;;24.30;55.80;;;;;;5090834;28;20302;-66
2021/09/14 09:52:34;;;;;;;7.07;6.37;;;24.30;55.80;;;;;;5084923;28;20188;-65
2021/09/14 09:55:08;;;;;;;6.67;5.93;;;24.30;55.70;;;;;;5085674;28;20259;-63
2021/09/14 09:57:37;;;;;;;9.47;6.63;;;24.30;55.80;;;;;;5074748;28;20299;-64
2021/09/14 10:00:17;;;;;;;8.87;6.83;;;24.30;55.80;;;;;;5078153;28;20672;-65
2021/09/14 10:02:53;;;;;;;8.00;6.90;;;24.30;55.90;;;;;;5086994;28;20893;-65
2021/09/14 10:05:25;;;;;;;7.20;6.50;;;24.30;56.00;;;;;;5091686;28;20227;-64
2021/09/14 10:08:01;;;;;;;7.63;6.80;;;24.30;56.00;;;;;;5073724;28;20224;-64
2021/09/14 10:10:43;;;;;;;7.73;6.13;;;24.30;56.20;;;;;;5089596;28;20232;-63
2021/09/14 10:13:14;;;;;;;8.10;6.23;;;24.20;56.20;;;;;;5094798;28;20216;-63
2021/09/14 10:15:48;;;;;;;9.30;6.13;;;24.30;56.30;;;;;;5082218;28;20238;-64
2021/09/14 10:18:32;;;;;;;7.77;6.60;;;24.20;56.40;;;;;;5087991;28;20229;-64
2021/09/14 10:21:03;;;;;;;6.97;6.27;;;24.20;56.50;;;;;;5088741;28;21528;-64
2021/09/14 10:23:41;;;;;;;7.10;5.83;;;24.20;56.60;;;;;;5074277;28;20219;-63
2021/09/14 10:26:17;;;;;;;6.33;5.73;;;24.10;56.50;;;;;;5098801;28;20229;-63
2021/09/14 10:28:49;;;;;;;6.87;6.17;;;24.20;56.80;;;;;;5094737;28;20571;-64
2021/09/14 10:31:31;;;;;;;6.50;5.50;;;24.20;56.80;;;;;;5078561;28;20199;-66
2021/09/14 10:34:22;;;;;;;7.17;5.60;;;24.20;56.80;;;;;;5085486;28;20204;-64
2021/09/14 10:37:12;;;;;;;8.73;6.00;;;24.20;56.90;;;;;;5095204;28;20196;-65
2021/09/14 10:39:42;;;;;;;7.37;6.10;;;24.20;57.00;;;;;;5073350;28;20197;-65
2021/09/14 10:42:36;;;;;;;7.33;5.80;;;24.10;57.00;;;;;;5105115;28;20235;-62
2021/09/14 10:45:24;;;;;;;7.40;5.53;;;24.20;57.10;;;;;;5090049;28;20196;-64
2021/09/14 10:48:02;;;;;;;5.83;4.70;;;24.10;57.10;;;;;;5097518;28;20322;-64
2021/09/14 10:50:34;;;;;;;5.70;5.00;;;24.10;57.00;;;;;;5107504;28;20180;-64
2021/09/14 10:53:02;;;;;;;6.77;5.10;;;24.10;57.10;;;;;;5084913;28;20228;-62
2021/09/14 10:55:31;;;;;;;5.50;4.77;;;24.10;57.20;;;;;;5058388;28;20256;-65
2021/09/14 10:58:06;;;;;;;6.07;5.43;;;24.10;57.30;;;;;;5088626;28;20209;-64
2021/09/14 11:00:37;;;;;;;6.00;5.40;;;24.20;57.30;;;;;;5084997;28;20753;-65
2021/09/14 11:03:10;;;;;;;7.73;4.93;;;24.20;57.40;;;;;;5101724;28;20211;-64
2021/09/14 11:05:39;;;;;;;7.27;5.40;;;24.20;57.40;;;;;;5096238;28;20191;-66
2021/09/14 11:08:10;;;;;;;5.70;5.10;;;24.20;57.50;;;;;;5104571;28;20282;-65
2021/09/14 11:10:43;;;;;;;5.43;4.93;;;24.20;57.60;;;;;;5102882;28;20201;-65
2021/09/14 11:13:31;;;;;;;6.13;4.83;;;24.30;57.60;;;;;;5069681;28;20189;-65
2021/09/14 11:16:04;;;;;;;6.50;5.03;;;24.30;57.50;;;;;;5081153;28;20361;-65
2021/09/14 11:18:49;;;;;;;5.93;5.27;;;24.30;57.50;;;;;;5091953;28;20728;-65
2021/09/14 11:21:21;;;;;;;12.37;5.67;;;24.30;57.50;;;;;;5104575;28;20212;-64
2021/09/14 11:23:52;;;;;;;7.20;4.70;;;24.30;57.60;;;;;;5109464;28;20196;-64
2021/09/14 11:26:30;;;;;;;9.97;5.53;;;24.30;57.30;;;;;;5103725;28;20219;-66
2021/09/14 11:29:01;;;;;;;8.63;6.50;;;24.30;57.80;;;;;;5085234;28;20375;-66
2021/09/14 11:31:35;;;;;;;8.63;5.57;;;24.30;58.00;;;;;;5059829;28;20201;-63
2021/09/14 11:34:06;;;;;;;6.87;5.00;;;24.30;57.80;;;;;;5101608;28;20577;-63
2021/09/14 11:36:38;;;;;;;10.20;5.83;;;24.40;58.00;;;;;;5088811;28;20201;-65
2021/09/14 11:39:09;;;;;;;7.20;6.50;;;24.40;57.80;;;;;;5084173;28;20193;-65
2021/09/14 11:41:38;;;;;;;7.27;5.70;;;24.40;58.20;;;;;;5107966;28;20267;-65
2021/09/14 11:44:07;;;;;;;14.53;7.57;;;24.40;58.00;;;;;;5075908;28;20223;-64
2021/09/14 11:46:49;;;;;;;17.63;8.80;;;24.40;57.80;;;;;;5091206;28;20293;-64
2021/09/14 11:49:17;;;;;;;21.20;9.50;;;24.40;57.80;;;;;;5107572;28;20222;-64
2021/09/14 11:52:05;;;;;;;25.37;10.30;;;24.40;58.20;;;;;;5110164;28;20271;-64
2021/09/14 11:54:36;;;;;;;19.50;9.03;;;24.40;57.80;;;;;;5087757;28;20562;-63
2021/09/14 11:57:14;;;;;;;24.90;9.47;;;24.40;57.80;;;;;;5093794;28;20536;-62
2021/09/14 11:59:45;;;;;;;12.80;7.30;;;24.50;57.90;;;;;;5088527;28;20197;-63
2021/09/14 12:02:22;;;;;;;15.77;7.37;;;24.50;58.10;;;;;;5082579;28;20197;-64
2021/09/14 12:05:06;;;;;;;13.83;6.70;;;24.50;57.80;;;;;;5107757;28;20192;-62
2021/09/14 12:07:40;;;;;;;11.10;5.97;;;24.50;57.70;;;;;;5101166;28;20220;-66
2021/09/14 12:10:15;;;;;;;6.13;5.00;;;24.50;57.70;;;;;;5101112;28;20192;-62
2021/09/14 12:12:50;;;;;;;5.13;4.63;;;24.40;57.60;;;;;;5105012;28;20200;-63
2021/09/14 12:15:21;;;;;;;6.97;4.97;;;24.50;57.60;;;;;;5086028;28;20192;-65
2021/09/14 12:18:03;;;;;;;5.97;4.90;;;24.50;57.60;;;;;;5080300;28;20653;-65
2021/09/14 12:20:34;;;;;;;5.90;4.30;;;24.40;57.70;;;;;;5082638;28;20204;-65
2021/09/14 12:23:06;;;;;;;4.97;4.47;;;24.50;57.70;;;;;;5089161;28;20210;-65
2021/09/14 12:25:34;;;;;;;5.40;4.20;;;24.40;57.70;;;;;;5102889;28;20205;-64
2021/09/14 12:28:06;;;;;;;5.07;4.53;;;24.50;57.90;;;;;;5088126;28;20221;-64
2021/09/14 12:30:35;;;;;;;4.80;4.30;;;24.50;57.80;;;;;;5109867;28;20253;-65
2021/09/14 12:33:07;;;;;;;5.70;4.37;;;24.50;58.00;;;;;;5105864;28;20208;-65
2021/09/14 12:35:39;;;;;;;5.87;4.73;;;24.50;58.00;;;;;;5092334;28;20197;-65
2021/09/14 12:38:09;;;;;;;5.53;5.03;;;24.50;57.90;;;;;;5091284;28;20201;-65
2021/09/14 12:40:41;;;;;;;5.53;5.00;;;24.50;57.90;;;;;;5109156;28;20205;-63
2021/09/14 12:43:12;;;;;;;6.40;5.20;;;24.50;57.90;;;;;;5103417;28;20633;-63
2021/09/14 12:45:43;;;;;;;5.47;4.63;;;24.50;58.10;;;;;;5101453;28;20269;-64
2021/09/14 12:48:13;;;;;;;5.33;4.63;;;24.50;58.00;;;;;;5104429;28;20231;-65
2021/09/14 12:50:43;;;;;;;7.00;5.07;;;24.50;58.00;;;;;;5101018;28;20205;-63
2021/09/14 12:53:30;;;;;;;5.60;5.00;;;24.50;58.20;;;;;;5083435;28;20205;-63
2021/09/14 12:56:01;;;;;;;6.50;5.00;;;24.50;58.20;;;;;;5104786;28;20210;-63
2021/09/14 12:58:51;;;;;;;5.57;5.03;;;24.50;58.20;;;;;;5077384;28;20237;-63
2021/09/14 13:01:22;;;;;;;5.97;5.37;;;24.50;58.20;;;;;;5103138;28;20209;-65
2021/09/14 13:03:50;;;;;;;6.37;5.37;;;24.50;58.10;;;;;;5104823;28;20631;-64
2021/09/14 13:06:20;;;;;;;8.80;5.07;;;24.50;58.20;;;;;;5100681;28;20204;-65
2021/09/14 13:08:48;;;;;;;6.30;4.73;;;24.50;58.30;;;;;;5088585;28;20226;-65
2021/09/14 13:11:19;;;;;;;5.57;5.07;;;24.50;58.20;;;;;;5091343;28;20709;-64
2021/09/14 13:16:41;;;;;;;6.37;4.97;;;24.50;58.30;;;;;;5094340;28;20841;-63
2021/09/14 13:19:12;;;;;;;7.47;5.47;;;24.50;58.50;;;;;;5107057;28;20203;-63
2021/09/14 13:21:42;;;;;;;5.77;5.17;;;24.50;58.50;;;;;;5097088;28;20284;-62
2021/09/14 13:24:12;;;;;;;6.47;5.43;;;24.50;58.50;;;;;;5102486;28;20209;-62
2021/09/14 13:26:42;;;;;;;5.30;4.77;;;24.50;58.60;;;;;;5093771;28;20544;-62
2021/09/14 13:29:10;;;;;;;8.00;5.10;;;24.50;58.60;;;;;;5085459;28;20270;-62
2021/09/14 13:31:40;;;;;;;6.77;5.57;;;24.50;58.70;;;;;;5094147;28;20203;-62
2021/09/14 13:34:09;;;;;;;5.40;4.90;;;24.50;59.30;;;;;;5092564;28;20212;-63
2021/09/14 13:36:41;;;;;;;5.73;5.13;;;24.50;58.80;;;;;;5092016;28;20211;-63
2021/09/14 13:39:13;;;;;;;7.43;5.37;;;24.60;58.80;;;;;;5100511;28;20210;-64
2021/09/14 13:41:48;;;;;;;5.60;5.00;;;24.60;58.80;;;;;;5089908;28;20522;-64
2021/09/14 13:47:11;;;;;;;9.33;5.23;;;24.50;58.90;;;;;;5105909;28;20196;-65
2021/09/14 13:49:42;;;;;;;7.60;5.30;;;24.50;59.00;;;;;;5088109;28;20209;-65
2021/09/14 13:52:13;;;;;;;7.27;5.53;;;24.60;59.10;;;;;;5087901;28;20196;-64
2021/09/14 13:54:44;;;;;;;6.43;5.83;;;24.50;59.10;;;;;;5085050;28;20397;-64
2021/09/14 13:57:14;;;;;;;6.30;5.53;;;24.50;59.10;;;;;;5101596;28;20234;-63
2021/09/14 13:59:44;;;;;;;6.27;5.60;;;24.50;59.20;;;;;;5094621;28;20508;-63
2021/09/14 14:02:16;;;;;;;6.37;5.77;;;24.50;59.10;;;;;;5083934;28;20650;-64
2021/09/14 14:04:48;;;;;;;6.47;5.70;;;24.50;59.10;;;;;;5098798;28;20208;-65
2021/09/14 14:07:18;;;;;;;5.87;5.27;;;24.60;59.10;;;;;;5087413;28;20208;-64
2021/09/14 14:09:48;;;;;;;5.60;5.10;;;24.60;59.10;;;;;;5100933;28;20231;-65